• Join FlightAware (Why Join?)
  • Login
  • US Flag 
12:52PM EDT


 

Airport Tracker/Info


-or-


 

Live Flight TrackerFlight Track Log ✈ CSC8837 ✈ 01-Sep-2014 ✈ ZPPP / KMG - ZUWX / WXN

Flight Track Log - Related Links

Times and Time Zones

All times are in EDT time to prevent confusion due to time zone crossing. See the CSC8837 flight status page for this flight to view local times or setup timezone preferences in your user account.

Time Position Orientation Groundspeed Altitude Reporting Facility
EDT Latitude Longitude Course Direction KTS MPH feet Rate Location/Type
05:26AM 25.6778 103.4455 39° Northeast  Level Estimated
05:27AM 25.7497 103.5104 39° Northeast  Level Estimated
05:28AM 25.8215 103.5753 39° Northeast  Level Estimated
05:29AM 25.8933 103.6404 39° Northeast  Level Estimated
05:30AM 25.9651 103.7055 39° Northeast  Level Estimated
05:31AM 26.0368 103.7707 39° Northeast  Level Estimated
05:32AM 26.1086 103.8360 39° Northeast  Level Estimated
05:33AM 26.1803 103.9013 39° Northeast  Level Estimated
05:34AM 26.2519 103.9668 39° Northeast  Level Estimated
05:35AM 26.3235 104.0323 39° Northeast  Level Estimated
05:36AM 26.3951 104.0979 39° Northeast  Level Estimated
05:37AM 26.4667 104.1636 39° Northeast  Level Estimated
05:38AM 26.5382 104.2293 39° Northeast  Level Estimated
05:39AM 26.6097 104.2952 39° Northeast  Level Estimated
05:40AM 26.6812 104.3611 39° Northeast  Level Estimated
05:41AM 26.7527 104.4271 40° Northeast  Level Estimated
05:42AM 26.8241 104.4932 40° Northeast  Level Estimated
05:43AM 26.8955 104.5594 40° Northeast  Level Estimated
05:44AM 26.9668 104.6257 40° Northeast  Level Estimated
05:45AM 27.0381 104.6920 40° Northeast  Level Estimated
05:46AM 27.1094 104.7585 40° Northeast  Level Estimated
05:47AM 27.1807 104.8250 40° Northeast  Level Estimated
05:48AM 27.2519 104.8916 40° Northeast  Level Estimated
05:49AM 27.3231 104.9583 40° Northeast  Level Estimated
05:50AM 27.3943 105.0251 40° Northeast  Level Estimated
05:51AM 27.4654 105.0919 40° Northeast  Level Estimated
05:52AM 27.5365 105.1589 40° Northeast  Level Estimated
05:53AM 27.6076 105.2259 40° Northeast  Level Estimated
05:54AM 27.6786 105.2930 40° Northeast  Level Estimated
05:55AM 27.7496 105.3602 40° Northeast  Level Estimated
05:56AM 27.8206 105.4275 40° Northeast  Level Estimated
05:57AM 27.8915 105.4949 40° Northeast  Level Estimated
05:58AM 27.9624 105.5624 40° Northeast  Level Estimated
05:59AM 28.0333 105.6299 40° Northeast  Level Estimated
06:00AM 28.1041 105.6976 40° Northeast  Level Estimated
06:01AM 28.1749 105.7653 40° Northeast  Level Estimated
06:02AM 28.2457 105.8332 40° Northeast  Level Estimated
06:03AM 28.3165 105.9011 40° Northeast  Level Estimated
06:04AM 28.3872 105.9691 40° Northeast  Level Estimated
06:05AM 28.4578 106.0372 40° Northeast  Level Estimated
06:06AM 28.5285 106.1054 40° Northeast  Level Estimated
06:07AM 28.5991 106.1737 40° Northeast  Level Estimated
06:08AM 28.6696 106.2420 40° Northeast  Level Estimated
06:09AM 28.7402 106.3105 40° Northeast  Level Estimated
06:10AM 28.8107 106.3790 40° Northeast  Level Estimated
06:11AM 28.8811 106.4477 40° Northeast  Level Estimated
06:12AM 28.9516 106.5164 40° Northeast  Level Estimated
06:13AM 29.0220 106.5853 41° Northeast  Level Estimated
06:14AM 29.0923 106.6542 41° Northeast  Level Estimated
06:15AM 29.1627 106.7232 41° Northeast  Level Estimated
06:16AM 29.2330 106.7924 41° Northeast  Level Estimated
06:17AM 29.3032 106.8616 41° Northeast  Level Estimated
06:18AM 29.3734 106.9309 41° Northeast  Level Estimated
06:19AM 29.4436 107.0003 41° Northeast  Level Estimated
06:20AM 29.5138 107.0698 41° Northeast  Level Estimated
06:21AM 29.5839 107.1394 41° Northeast  Level Estimated
06:22AM 29.6539 107.2091 41° Northeast  Level Estimated
06:23AM 29.7240 107.2789 41° Northeast  Level Estimated
06:24AM 29.7940 107.3488 41° Northeast  Level Estimated
06:25AM 29.8640 107.4187 41° Northeast  Level Estimated
06:26AM 29.9339 107.4888 41° Northeast  Level Estimated
06:27AM 30.0038 107.5590 41° Northeast  Level Estimated
06:28AM 30.0736 107.6293 41° Northeast  Level Estimated
06:29AM 30.1434 107.6997 41° Northeast  Level Estimated
06:30AM 30.2132 107.7702 41° Northeast  Level Estimated
06:31AM 30.2830 107.8408 41° Northeast  Level Estimated
06:32AM 30.3527 107.9114 41° Northeast  Level Estimated
06:33AM 30.4223 107.9822 41° Northeast  Level Estimated
06:34AM 30.4920 108.0531 41° Northeast  Level Estimated
06:35AM 30.5616 108.1241 41° Northeast  Level Estimated
06:36AM 30.6311 108.1952 41° Northeast  Level Estimated
06:37AM 30.7006 108.2664 41° Northeast  Level Estimated
06:38AM 30.7701 108.3377 41° Northeast  Level Estimated
06:39AM 30.8361 108.4056 41° Northeast  Level Estimated
06:40AM 30.8361 108.4056 North  Level Estimated
06:41AM 30.8361 108.4056 North  Level Estimated
06:42AM 30.8361 108.4056 North  Level Estimated
06:43AM 30.8361 108.4056 North  Level Estimated